Archival Weather

Chicago O'Hare International

Chicago, Illinois (KORD)

Report from: Saturday, March 5, 2022 3:51 PM CST
Current time: Saturday, February 4, 2023 12:06 AM CST

Current weather
Weather history
Weather forecast

Temperature19.4°C (66.9°F)
Dew point10.6°C (51.1°F)
Winds 13 kts (6.7 m/s, 15 mph) South (180°)
Wind gusts 21 kts (10.8 m/s, 24.2 mph)
Peak wind 27 kts (13.9 m/s, 31.1 mph) South (190°) at 15:36
Visibility10 mi. (16.1 km)
Clouds Scattered clouds 4,100 ft. (1,250 m)
Ceiling: Broken clouds 6,500 ft. (1,981 m)
Broken clouds 9,500 ft. (2,896 m)
Altimeter29.73 in.Hg (1007 mB)
Relative humidity57 %
Density altitude916 ft. (279 m)
Sea-level pressure100.7 kPa (1007 mB, 29.72 in.Hg)
Remarks System requires maintenance
Automated weather observing station with precipitation discriminator
Flight conditions Visual Meteorological Conditions
Raw dataKORD 052151Z 18013G21KT 10SM SCT041 BKN065 BKN095 19/11 A2973 RMK AO2 PK WND 19027/2136 SLP066 T01940106 $
An unhandled exception has occurred. See browser dev tools for details. Reload 🗙